Time;durP1;ratioP1;P1;durP2;ratioP2;P2;SDS_P1;SDS_P2;PMS_P1;PMS_P2;Temp;Humidity;BMP_temperature;BMP_pressure;BME280_temperature;BME280_humidity;BME280_pressure;Samples;Min_cycle;Max_cycle;Signal;HPM_P1;HPM_P2
2023/05/17 00:00:13;;;;;;;4.63;2.17;;;12.50;70.00;;;;;;5055528;28;20059;-69
2023/05/17 00:02:39;;;;;;;4.72;2.03;;;12.40;70.30;;;;;;5071720;28;20239;-69
2023/05/17 00:05:05;;;;;;;6.65;1.80;;;12.40;70.50;;;;;;5067618;28;20471;-69
2023/05/17 00:07:31;;;;;;;3.88;1.83;;;12.30;70.50;;;;;;5072241;28;20485;-69
2023/05/17 00:09:56;;;;;;;4.97;2.10;;;12.40;71.10;;;;;;5066618;28;20036;-68
2023/05/17 00:12:22;;;;;;;5.28;1.88;;;12.30;70.80;;;;;;5064961;28;20036;-68
2023/05/17 00:14:48;;;;;;;8.85;2.22;;;12.30;71.00;;;;;;5068874;28;20039;-69
2023/05/17 00:17:13;;;;;;;4.28;1.83;;;12.20;71.10;;;;;;5047105;28;20037;-69
2023/05/17 00:19:39;;;;;;;7.15;2.20;;;12.20;71.40;;;;;;5067273;28;20367;-68
2023/05/17 00:22:04;;;;;;;7.40;2.13;;;12.20;71.60;;;;;;5065933;28;20040;-68
2023/05/17 00:24:30;;;;;;;6.40;1.98;;;12.10;72.00;;;;;;5072362;28;20374;-68
2023/05/17 00:26:56;;;;;;;6.15;2.33;;;12.10;72.30;;;;;;5069812;28;20079;-69
2023/05/17 00:29:21;;;;;;;5.93;2.13;;;12.10;73.10;;;;;;5077098;28;20418;-68
2023/05/17 00:31:47;;;;;;;7.88;2.70;;;12.10;73.00;;;;;;5066027;28;20094;-69
2023/05/17 00:34:12;;;;;;;8.15;2.40;;;12.10;73.30;;;;;;5062934;28;20379;-69
2023/05/17 00:36:38;;;;;;;7.07;2.55;;;12.00;73.50;;;;;;5067015;28;20280;-70
2023/05/17 00:39:03;;;;;;;6.47;2.20;;;12.00;73.80;;;;;;5054292;28;20059;-69
2023/05/17 00:41:29;;;;;;;5.55;2.20;;;12.00;73.90;;;;;;5067765;28;20033;-69
2023/05/17 00:43:55;;;;;;;6.28;2.25;;;11.90;74.20;;;;;;5065971;28;20568;-69
2023/05/17 00:46:20;;;;;;;5.45;2.65;;;12.00;74.50;;;;;;5066509;28;20433;-69
2023/05/17 00:48:46;;;;;;;4.32;2.33;;;12.00;74.70;;;;;;5047928;28;20040;-70
2023/05/17 00:51:13;;;;;;;6.07;2.92;;;11.90;75.00;;;;;;5066354;28;20079;-69
2023/05/17 00:53:39;;;;;;;7.25;2.70;;;11.90;75.30;;;;;;5069129;28;20049;-69
2023/05/17 00:56:05;;;;;;;7.30;2.20;;;11.90;75.70;;;;;;5067397;28;20123;-70
2023/05/17 00:58:30;;;;;;;5.45;3.03;;;11.90;75.80;;;;;;5074713;28;20086;-69
2023/05/17 01:00:57;;;;;;;5.35;2.20;;;11.90;76.00;;;;;;5066890;28;20405;-69
2023/05/17 01:03:23;;;;;;;6.53;2.70;;;11.80;76.30;;;;;;5063810;28;20028;-69
2023/05/17 01:05:50;;;;;;;7.35;3.25;;;11.80;76.60;;;;;;5061911;28;20044;-70
2023/05/17 01:08:15;;;;;;;5.05;2.38;;;11.80;76.80;;;;;;5066221;28;20086;-70
2023/05/17 01:11:12;;;;;;;4.30;2.53;;;11.80;77.10;;;;;;5057934;28;20506;-69
2023/05/17 01:14:12;;;;;;;7.75;2.80;;;11.80;77.60;;;;;;5063354;28;20047;-69
2023/05/17 01:16:43;;;;;;;7.28;2.83;;;11.80;77.40;;;;;;5067607;28;20072;-69
2023/05/17 01:19:28;;;;;;;6.82;2.33;;;11.70;77.60;;;;;;5067947;28;20124;-69
2023/05/17 01:22:08;;;;;;;;;;;11.70;78.10;;;;;;5059263;28;20034;-69
2023/05/17 01:24:59;;;;;;;7.63;2.55;;;11.70;77.10;;;;;;5066661;28;19927;-70
2023/05/17 01:27:27;;;;;;;6.78;2.80;;;11.60;77.80;;;;;;5048218;28;20451;-70
2023/05/17 01:29:55;;;;;;;10.93;4.18;;;11.60;78.30;;;;;;5042455;28;20064;-69
2023/05/17 01:32:22;;;;;;;8.82;2.88;;;11.60;79.10;;;;;;5041415;28;20037;-69
2023/05/17 01:34:48;;;;;;;7.32;3.50;;;11.50;79.10;;;;;;5043450;28;20041;-70
2023/05/17 01:37:13;;;;;;;7.60;3.10;;;11.50;79.20;;;;;;5046258;28;20087;-69
2023/05/17 01:39:40;;;;;;;12.85;4.20;;;11.50;79.40;;;;;;5045367;28;20045;-72
2023/05/17 01:42:14;;;;;;;8.23;2.90;;;11.50;79.70;;;;;;5043324;28;20083;-73
2023/05/17 01:44:54;;;;;;;8.00;2.72;;;11.50;80.10;;;;;;5033843;28;20664;-73
2023/05/17 01:47:38;;;;;;;9.00;3.40;;;11.50;80.20;;;;;;5046057;28;20085;-72
2023/05/17 01:50:05;;;;;;;7.40;3.10;;;11.50;80.40;;;;;;5024108;28;20036;-73
2023/05/17 01:52:42;;;;;;;6.18;3.17;;;11.50;80.30;;;;;;5049489;28;20099;-73
2023/05/17 01:55:53;;;;;;;9.90;3.35;;;11.50;80.70;;;;;;5050485;28;20047;-73
2023/05/17 01:58:21;;;;;;;7.05;3.20;;;11.40;80.80;;;;;;5046055;28;20051;-73
2023/05/17 02:00:48;;;;;;;8.07;3.00;;;11.50;81.00;;;;;;5049268;28;20049;-71
2023/05/17 02:03:20;;;;;;;5.93;2.95;;;11.40;81.40;;;;;;5051129;28;20119;-71
2023/05/17 02:05:46;;;;;;;7.82;3.88;;;11.40;82.10;;;;;;5045192;28;20112;-70
2023/05/17 02:08:12;;;;;;;9.88;3.53;;;11.40;82.20;;;;;;5050982;28;20122;-71
2023/05/17 02:10:38;;;;;;;8.45;3.65;;;11.40;82.00;;;;;;5035402;28;20127;-70
2023/05/17 02:13:04;;;;;;;11.63;3.65;;;11.30;82.00;;;;;;5043961;28;20129;-70
2023/05/17 02:15:30;;;;;;;13.13;3.33;;;11.30;82.40;;;;;;5041457;28;20044;-70
2023/05/17 02:17:55;;;;;;;10.18;2.97;;;11.30;82.60;;;;;;5051409;28;20041;-71
2023/05/17 02:20:21;;;;;;;32.22;4.13;;;11.30;82.80;;;;;;5047318;28;20060;-70
2023/05/17 02:22:46;;;;;;;12.30;3.60;;;11.30;83.20;;;;;;5051610;28;20072;-70
2023/05/17 02:25:13;;;;;;;8.90;3.83;;;11.30;83.30;;;;;;5042860;28;20048;-70
2023/05/17 02:27:38;;;;;;;10.63;4.13;;;11.30;83.40;;;;;;5048761;28;20060;-70
2023/05/17 02:30:05;;;;;;;8.18;3.10;;;11.30;83.50;;;;;;5047713;28;20040;-71
2023/05/17 02:32:31;;;;;;;8.73;3.25;;;11.30;83.70;;;;;;5035119;28;20041;-71
2023/05/17 02:34:57;;;;;;;5.07;2.47;;;11.30;84.00;;;;;;5050528;28;20025;-71
2023/05/17 02:37:23;;;;;;;9.07;2.88;;;11.30;84.10;;;;;;5043562;28;20029;-71
2023/05/17 02:39:49;;;;;;;9.57;3.05;;;11.30;84.50;;;;;;5046886;28;20642;-71
2023/05/17 02:42:14;;;;;;;6.88;3.60;;;11.20;85.00;;;;;;5045820;28;20049;-71
2023/05/17 02:44:40;;;;;;;5.97;3.08;;;11.20;85.10;;;;;;5032680;28;20086;-69
2023/05/17 02:47:06;;;;;;;7.93;3.45;;;11.20;85.30;;;;;;5047883;28;20522;-68
2023/05/17 02:49:31;;;;;;;6.57;3.20;;;11.20;85.50;;;;;;5049138;28;20128;-69
2023/05/17 02:51:57;;;;;;;14.32;3.22;;;11.30;85.60;;;;;;5045521;28;20036;-69
2023/05/17 02:54:23;;;;;;;9.93;3.47;;;11.30;85.70;;;;;;5048665;28;20112;-68
2023/05/17 02:56:48;;;;;;;9.10;4.10;;;11.30;85.90;;;;;;5045349;28;20098;-68
2023/05/17 02:59:14;;;;;;;7.45;3.42;;;11.40;86.00;;;;;;5050085;28;20128;-69
2023/05/17 03:01:40;;;;;;;7.30;3.42;;;11.50;86.10;;;;;;5047270;28;20436;-69
2023/05/17 03:04:06;;;;;;;9.30;3.72;;;11.50;86.70;;;;;;5048930;28;20033;-69
2023/05/17 03:06:33;;;;;;;9.55;3.60;;;11.60;86.80;;;;;;5029702;28;20048;-69
2023/05/17 03:08:59;;;;;;;6.53;3.25;;;11.60;86.30;;;;;;5035958;28;20052;-68
2023/05/17 03:11:24;;;;;;;8.95;3.75;;;11.60;86.30;;;;;;5045649;28;20045;-69
2023/05/17 03:13:50;;;;;;;8.38;3.33;;;11.60;86.30;;;;;;5046292;28;20604;-69
2023/05/17 03:16:17;;;;;;;7.40;3.22;;;11.70;86.40;;;;;;5048598;28;20041;-69
2023/05/17 03:18:43;;;;;;;10.95;3.65;;;11.70;86.50;;;;;;5048544;28;20042;-69
2023/05/17 03:21:08;;;;;;;11.40;3.88;;;11.70;86.60;;;;;;5048124;28;20048;-69
2023/05/17 03:23:34;;;;;;;11.90;4.13;;;11.70;86.70;;;;;;5042380;28;20045;-69
2023/05/17 03:26:00;;;;;;;10.70;4.18;;;11.70;86.80;;;;;;5040831;28;20171;-69
2023/05/17 03:28:25;;;;;;;8.50;3.10;;;11.70;86.90;;;;;;5047230;28;20107;-68
2023/05/17 03:30:51;;;;;;;6.05;3.00;;;11.70;86.80;;;;;;5029253;28;20041;-68
2023/05/17 03:33:17;;;;;;;9.82;3.88;;;11.70;86.80;;;;;;5044994;28;20570;-69
2023/05/17 03:35:45;;;;;;;9.40;3.95;;;11.80;87.10;;;;;;5042727;28;20376;-69
2023/05/17 03:38:11;;;;;;;8.73;3.50;;;11.80;87.10;;;;;;5045627;28;20052;-69
2023/05/17 03:40:37;;;;;;;8.82;3.72;;;11.80;87.20;;;;;;5044362;28;20037;-68
2023/05/17 03:43:03;;;;;;;8.15;4.25;;;11.80;87.40;;;;;;5047292;28;20132;-68
2023/05/17 03:45:28;;;;;;;10.43;3.70;;;11.80;87.50;;;;;;5049828;28;20139;-68
2023/05/17 03:47:54;;;;;;;9.52;4.35;;;11.90;87.60;;;;;;5049400;28;20438;-68
2023/05/17 03:50:20;;;;;;;10.88;3.97;;;11.80;87.60;;;;;;5045674;28;20043;-67
2023/05/17 03:52:45;;;;;;;8.35;3.00;;;11.90;88.00;;;;;;5045776;28;20029;-68
2023/05/17 03:55:11;;;;;;;12.48;3.85;;;11.90;88.00;;;;;;5047746;28;20033;-68
2023/05/17 03:57:36;;;;;;;10.55;3.33;;;11.90;88.10;;;;;;5040424;28;20215;-69
2023/05/17 04:00:07;;;;;;;12.95;4.07;;;11.90;88.10;;;;;;5034726;28;20032;-69
2023/05/17 04:02:33;;;;;;;8.25;3.20;;;11.90;88.20;;;;;;5040095;28;20041;-69
2023/05/17 04:04:58;;;;;;;8.38;4.00;;;11.80;88.10;;;;;;5044319;28;20062;-69
2023/05/17 04:07:24;;;;;;;9.85;3.35;;;11.80;88.20;;;;;;5031360;28;20041;-70
2023/05/17 04:09:50;;;;;;;7.72;3.47;;;11.90;88.30;;;;;;5046172;28;20036;-70
2023/05/17 04:12:16;;;;;;;8.20;3.60;;;11.80;88.30;;;;;;5043065;28;20038;-71
2023/05/17 04:14:42;;;;;;;9.13;4.20;;;11.80;88.30;;;;;;5030446;28;20053;-71
2023/05/17 04:17:07;;;;;;;12.25;4.30;;;11.80;88.40;;;;;;5040754;28;20048;-71
2023/05/17 04:19:33;;;;;;;8.13;3.63;;;11.80;88.60;;;;;;5028530;28;20526;-72
2023/05/17 04:21:59;;;;;;;10.43;3.78;;;11.80;88.60;;;;;;5043191;28;20135;-72
2023/05/17 04:24:24;;;;;;;17.55;5.22;;;11.80;88.60;;;;;;5044450;28;20119;-72
2023/05/17 04:26:50;;;;;;;9.88;3.30;;;11.80;88.80;;;;;;5036971;28;20131;-74
2023/05/17 04:29:15;;;;;;;12.40;4.40;;;11.80;88.90;;;;;;5065201;28;20033;-72
2023/05/17 04:31:41;;;;;;;10.75;4.15;;;11.80;89.10;;;;;;5066537;28;20047;-72
2023/05/17 04:34:08;;;;;;;6.55;3.58;;;11.90;89.20;;;;;;5067855;28;20037;-72
2023/05/17 04:36:33;;;;;;;10.45;3.60;;;11.90;89.20;;;;;;5063394;28;20068;-72
2023/05/17 04:38:59;;;;;;;8.43;3.90;;;11.90;89.20;;;;;;5068826;28;20072;-72
2023/05/17 04:41:25;;;;;;;7.20;3.58;;;11.90;89.30;;;;;;5065761;28;20043;-72
2023/05/17 04:43:50;;;;;;;7.05;3.42;;;11.90;89.30;;;;;;5067147;28;20032;-73
2023/05/17 04:46:16;;;;;;;8.32;3.55;;;11.90;89.30;;;;;;5049677;28;20052;-72
2023/05/17 04:48:41;;;;;;;10.85;3.95;;;11.90;89.40;;;;;;5051874;28;20401;-73
2023/05/17 04:51:07;;;;;;;8.85;3.58;;;11.90;89.30;;;;;;5066844;28;20556;-73
2023/05/17 04:53:33;;;;;;;13.00;4.90;;;11.90;89.50;;;;;;5069497;28;20056;-69
2023/05/17 04:55:58;;;;;;;10.75;4.00;;;11.90;89.70;;;;;;5064259;28;20504;-69
2023/05/17 04:58:24;;;;;;;7.95;3.63;;;11.80;89.60;;;;;;5066324;28;20436;-69
2023/05/17 05:00:51;;;;;;;7.57;4.13;;;11.90;89.80;;;;;;5061473;28;20068;-69
2023/05/17 05:03:17;;;;;;;11.65;4.03;;;11.90;89.90;;;;;;5060644;28;20048;-70
2023/05/17 05:05:43;;;;;;;10.00;4.50;;;11.90;90.00;;;;;;5064596;28;20091;-70
2023/05/17 05:08:09;;;;;;;11.75;4.18;;;12.00;90.00;;;;;;5067770;28;20507;-74
2023/05/17 05:10:34;;;;;;;7.80;3.40;;;12.00;89.80;;;;;;5065750;28;20414;-73
2023/05/17 05:13:00;;;;;;;13.60;4.03;;;12.00;89.70;;;;;;5059852;28;20386;-70
2023/05/17 05:15:25;;;;;;;6.95;3.33;;;12.00;89.80;;;;;;5067175;28;20033;-73
2023/05/17 05:17:51;;;;;;;9.90;4.22;;;12.00;89.80;;;;;;5049682;28;20041;-70
2023/05/17 05:20:17;;;;;;;6.32;3.03;;;12.10;89.70;;;;;;5062823;28;20612;-71
2023/05/17 05:22:43;;;;;;;16.08;4.50;;;12.10;89.70;;;;;;5062923;28;20040;-70
2023/05/17 05:25:09;;;;;;;7.53;3.38;;;12.10;89.50;;;;;;5064821;28;20052;-70
2023/05/17 05:27:35;;;;;;;16.15;4.35;;;12.10;89.20;;;;;;5042964;28;20155;-71
2023/05/17 05:30:01;;;;;;;9.90;4.53;;;12.00;89.20;;;;;;5041100;28;20029;-69
2023/05/17 05:32:26;;;;;;;10.20;3.55;;;12.10;89.40;;;;;;5046600;28;20033;-69
2023/05/17 05:34:52;;;;;;;9.52;3.65;;;12.20;89.10;;;;;;5025321;28;20496;-70
2023/05/17 05:37:20;;;;;;;8.60;3.05;;;12.10;89.00;;;;;;5042927;28;20123;-70
2023/05/17 05:39:46;;;;;;;14.60;4.70;;;12.10;88.80;;;;;;5032312;28;20048;-68
2023/05/17 05:42:12;;;;;;;12.60;3.47;;;12.10;89.00;;;;;;5041899;28;20411;-70
2023/05/17 05:44:38;;;;;;;12.57;3.95;;;12.20;88.80;;;;;;5046536;28;20681;-69
2023/05/17 05:47:04;;;;;;;10.50;4.32;;;12.20;89.00;;;;;;5049210;28;20041;-70
2023/05/17 05:49:30;;;;;;;9.88;3.83;;;12.20;89.20;;;;;;5044529;28;20040;-69
2023/05/17 05:51:55;;;;;;;8.50;4.35;;;12.40;89.40;;;;;;5049250;28;20056;-74
2023/05/17 05:54:21;;;;;;;9.38;3.63;;;12.50;89.30;;;;;;5045213;28;20033;-78
2023/05/17 05:56:46;;;;;;;10.50;4.90;;;12.50;89.10;;;;;;5043322;28;20328;-78
2023/05/17 05:59:12;;;;;;;9.90;4.07;;;12.50;88.80;;;;;;5039918;28;20501;-77
2023/05/17 06:01:38;;;;;;;12.68;4.00;;;12.60;88.50;;;;;;5041736;28;20040;-77
2023/05/17 06:04:04;;;;;;;9.27;3.67;;;12.60;88.20;;;;;;5023467;28;20043;-72
2023/05/17 06:06:30;;;;;;;11.98;4.18;;;12.60;87.50;;;;;;5034371;28;20125;-75
2023/05/17 06:08:55;;;;;;;7.03;2.45;;;12.60;87.90;;;;;;5041940;28;20443;-74
2023/05/17 06:11:22;;;;;;;10.73;2.70;;;12.60;86.90;;;;;;5041510;28;20049;-72
2023/05/17 06:13:48;;;;;;;13.80;3.50;;;12.60;86.50;;;;;;5035669;28;20124;-74
2023/05/17 06:16:14;;;;;;;14.07;4.20;;;12.60;85.40;;;;;;5046279;28;20164;-74
2023/05/17 06:18:43;;;;;;;11.15;2.80;;;12.70;85.10;;;;;;5027294;28;20170;-76
2023/05/17 06:21:08;;;;;;;9.63;3.55;;;12.70;84.40;;;;;;5043234;28;20067;-71
2023/05/17 06:23:34;;;;;;;24.92;4.07;;;12.50;82.50;;;;;;5042849;28;20400;-75
2023/05/17 06:26:00;;;;;;;15.18;3.10;;;12.40;82.80;;;;;;5040892;28;20289;-73
2023/05/17 06:28:25;;;;;;;9.43;2.85;;;12.40;81.70;;;;;;5043790;28;20040;-77
2023/05/17 06:30:51;;;;;;;12.50;3.50;;;12.40;82.10;;;;;;5031981;28;20044;-74
2023/05/17 06:33:16;;;;;;;7.93;3.22;;;12.30;81.90;;;;;;5048632;28;20040;-75
2023/05/17 06:35:42;;;;;;;9.20;2.85;;;12.40;82.00;;;;;;5054452;28;20055;-75
2023/05/17 06:38:08;;;;;;;7.35;2.95;;;12.40;81.80;;;;;;5048397;28;20116;-74
2023/05/17 06:40:33;;;;;;;8.65;2.47;;;12.50;81.80;;;;;;5041949;28;20037;-75
2023/05/17 06:43:01;;;;;;;8.95;3.03;;;12.50;81.00;;;;;;5049558;28;20512;-74
2023/05/17 06:45:26;;;;;;;6.30;2.40;;;12.40;80.80;;;;;;5025940;28;20056;-77
2023/05/17 06:47:52;;;;;;;7.30;2.83;;;12.40;80.90;;;;;;5040392;28;20418;-76
2023/05/17 06:50:18;;;;;;;11.07;3.63;;;12.40;81.00;;;;;;5054987;28;20029;-74
2023/05/17 06:52:44;;;;;;;7.32;3.60;;;12.50;80.60;;;;;;5028977;28;20044;-75
2023/05/17 06:55:09;;;;;;;9.20;3.35;;;12.60;80.90;;;;;;5046630;28;20029;-75
2023/05/17 06:57:35;;;;;;;12.32;2.35;;;12.70;81.00;;;;;;5043528;28;20421;-72
2023/05/17 07:00:01;;;;;;;7.20;2.92;;;12.70;79.80;;;;;;5046931;28;20394;-75
2023/05/17 07:02:29;;;;;;;7.60;2.45;;;12.70;78.50;;;;;;5042069;28;20055;-74
2023/05/17 07:04:55;;;;;;;8.00;2.53;;;12.70;77.90;;;;;;5027224;28;20033;-75
2023/05/17 07:07:21;;;;;;;10.43;2.42;;;12.60;78.50;;;;;;5046059;28;20099;-76
2023/05/17 07:09:46;;;;;;;10.20;2.65;;;12.60;78.50;;;;;;5031321;28;20047;-75
2023/05/17 07:12:12;;;;;;;9.98;2.63;;;12.60;78.10;;;;;;5055064;28;20570;-73
2023/05/17 07:14:37;;;;;;;7.78;3.05;;;12.60;78.30;;;;;;5049577;28;20033;-75
2023/05/17 07:17:03;;;;;;;5.85;2.45;;;12.70;78.70;;;;;;5032212;28;20091;-72
2023/05/17 07:19:29;;;;;;;11.70;2.75;;;12.70;78.30;;;;;;5055260;28;20087;-81
2023/05/17 07:21:54;;;;;;;5.00;2.22;;;12.70;78.60;;;;;;5049182;28;20046;-77
2023/05/17 07:24:20;;;;;;;8.48;2.35;;;12.80;78.90;;;;;;5032661;28;20051;-72
2023/05/17 07:26:46;;;;;;;7.43;2.63;;;12.80;78.80;;;;;;5021595;28;20079;-70
2023/05/17 07:29:12;;;;;;;10.55;1.98;;;12.90;78.50;;;;;;5043534;28;20110;-70
2023/05/17 07:31:37;;;;;;;8.15;2.53;;;12.90;78.20;;;;;;5047911;28;20139;-70
2023/05/17 07:34:03;;;;;;;8.65;2.85;;;13.00;77.90;;;;;;5045297;28;20037;-70
2023/05/17 07:36:29;;;;;;;8.18;2.70;;;13.10;77.80;;;;;;5044853;28;20410;-78
2023/05/17 07:38:58;;;;;;;8.05;3.15;;;13.10;77.40;;;;;;5029432;28;20060;-76
2023/05/17 07:41:24;;;;;;;7.78;2.10;;;13.20;77.30;;;;;;5045368;28;20047;-75
2023/05/17 07:43:50;;;;;;;12.30;2.35;;;13.30;77.80;;;;;;5044515;28;20163;-76
2023/05/17 07:46:16;;;;;;;7.35;2.70;;;13.40;78.00;;;;;;5048168;28;20519;-76
2023/05/17 07:48:42;;;;;;;5.00;2.53;;;13.60;77.70;;;;;;5051345;28;20090;-77
2023/05/17 07:51:08;;;;;;;6.80;2.40;;;13.60;77.70;;;;;;5045570;28;20045;-76
2023/05/17 07:53:33;;;;;;;8.07;2.67;;;13.70;77.00;;;;;;5032682;28;20387;-70
2023/05/17 07:55:59;;;;;;;5.22;2.40;;;13.70;76.20;;;;;;5036984;28;20094;-70
2023/05/17 07:58:24;;;;;;;5.07;2.40;;;13.70;76.20;;;;;;5044410;28;20033;-71
2023/05/17 08:00:50;;;;;;;7.00;2.50;;;13.70;76.30;;;;;;5030689;28;20041;-71
2023/05/17 08:03:16;;;;;;;5.07;2.42;;;13.70;76.20;;;;;;5020655;28;20449;-70
2023/05/17 08:05:41;;;;;;;8.73;2.78;;;13.80;75.50;;;;;;5039284;28;20059;-70
2023/05/17 08:08:07;;;;;;;5.90;2.55;;;13.70;74.10;;;;;;5047954;28;20498;-70
2023/05/17 08:10:36;;;;;;;7.90;2.88;;;13.70;73.60;;;;;;5042386;28;20124;-70
2023/05/17 08:13:03;;;;;;;9.13;2.63;;;13.60;73.10;;;;;;5047284;28;20037;-70
2023/05/17 08:15:29;;;;;;;6.82;1.88;;;13.50;72.20;;;;;;5048060;28;20051;-70
2023/05/17 08:17:56;;;;;;;7.45;2.58;;;13.50;73.00;;;;;;5044201;28;20151;-71
2023/05/17 08:20:21;;;;;;;6.60;2.10;;;13.60;73.30;;;;;;5048952;28;20478;-70
2023/05/17 08:22:47;;;;;;;5.55;2.58;;;13.70;73.10;;;;;;5048751;28;20035;-71
2023/05/17 08:25:12;;;;;;;7.03;2.10;;;13.70;73.00;;;;;;5047709;28;20045;-70
2023/05/17 08:27:39;;;;;;;8.95;3.10;;;13.70;72.20;;;;;;5042420;28;20057;-70
2023/05/17 08:30:06;;;;;;;12.30;3.08;;;13.70;72.80;;;;;;5046844;28;20045;-70
2023/05/17 08:32:31;;;;;;;7.70;2.47;;;13.80;73.00;;;;;;5036690;28;20090;-69
2023/05/17 08:34:57;;;;;;;6.75;2.00;;;13.90;73.20;;;;;;5042627;28;20037;-70
2023/05/17 08:37:23;;;;;;;5.13;2.22;;;13.90;72.40;;;;;;5041244;28;20065;-71
2023/05/17 08:39:50;;;;;;;6.40;2.22;;;13.90;71.80;;;;;;5044146;28;20072;-70
2023/05/17 08:42:25;;;;;;;7.45;2.40;;;13.90;72.30;;;;;;5045382;28;20045;-70
2023/05/17 08:44:52;;;;;;;4.95;2.03;;;13.90;72.10;;;;;;5047509;28;20494;-70
2023/05/17 08:47:24;;;;;;;6.18;2.30;;;14.00;72.10;;;;;;5039359;28;20041;-70
2023/05/17 08:49:51;;;;;;;8.05;2.00;;;14.10;71.20;;;;;;5041587;28;20041;-76
2023/05/17 08:52:16;;;;;;;9.77;2.55;;;14.10;70.60;;;;;;5040980;28;20072;-76
2023/05/17 08:54:42;;;;;;;8.00;2.70;;;14.10;70.40;;;;;;5047624;28;20502;-74
2023/05/17 08:57:10;;;;;;;11.75;3.22;;;14.10;69.30;;;;;;5033914;28;20348;-77
2023/05/17 08:59:37;;;;;;;8.48;2.88;;;14.10;69.30;;;;;;5041494;28;20041;-77
2023/05/17 09:02:04;;;;;;;11.13;3.10;;;14.10;68.50;;;;;;5045261;28;20056;-70
2023/05/17 09:04:30;;;;;;;10.23;2.63;;;14.20;68.20;;;;;;5042306;28;20118;-70
2023/05/17 09:06:56;;;;;;;10.07;2.60;;;14.20;68.90;;;;;;5039665;28;20073;-69
2023/05/17 09:09:22;;;;;;;10.90;2.95;;;14.20;68.20;;;;;;5044912;28;20178;-70
2023/05/17 09:11:48;;;;;;;5.20;1.80;;;14.30;68.10;;;;;;5044744;28;20033;-69
2023/05/17 09:14:16;;;;;;;7.78;2.47;;;14.30;67.90;;;;;;5047130;28;20435;-69
2023/05/17 09:16:42;;;;;;;8.88;2.50;;;14.30;67.50;;;;;;5044285;28;20494;-69
2023/05/17 09:19:15;;;;;;;6.15;2.15;;;14.20;67.60;;;;;;5045752;28;20091;-70
2023/05/17 09:21:45;;;;;;;6.25;2.10;;;14.30;68.40;;;;;;5044307;28;20147;-69
2023/05/17 09:24:11;;;;;;;12.02;2.70;;;14.30;68.20;;;;;;5037244;28;20037;-70
2023/05/17 09:26:39;;;;;;;4.07;2.08;;;14.30;67.30;;;;;;5037074;28;20103;-69
2023/05/17 09:29:09;;;;;;;7.10;2.25;;;14.40;67.40;;;;;;5044769;28;20041;-70
2023/05/17 09:31:35;;;;;;;7.43;2.53;;;14.40;66.40;;;;;;5036647;28;20391;-69
2023/05/17 09:34:01;;;;;;;9.32;2.40;;;14.50;66.20;;;;;;5022758;28;20033;-68
2023/05/17 09:36:27;;;;;;;5.15;1.95;;;14.50;66.00;;;;;;5038923;28;20588;-69
2023/05/17 09:39:03;;;;;;;4.30;1.95;;;14.60;66.00;;;;;;5045850;28;20094;-70
2023/05/17 09:41:32;;;;;;;6.55;2.30;;;14.60;66.20;;;;;;5040366;28;20037;-71
2023/05/17 09:44:08;;;;;;;8.68;2.97;;;14.70;66.30;;;;;;5038490;28;20389;-70
2023/05/17 09:46:34;;;;;;;14.70;3.72;;;14.80;66.70;;;;;;5044044;28;20052;-70
2023/05/17 09:49:03;;;;;;;11.63;2.80;;;14.80;64.90;;;;;;5044405;28;20147;-70
2023/05/17 09:51:35;;;;;;;7.70;2.63;;;14.80;64.80;;;;;;5043569;28;20036;-70
2023/05/17 09:54:01;;;;;;;6.30;2.20;;;14.80;64.80;;;;;;5043591;28;20421;-69
2023/05/17 09:56:28;;;;;;;9.07;2.70;;;14.90;65.50;;;;;;5042657;28;20044;-70
2023/05/17 09:58:54;;;;;;;8.75;3.17;;;14.90;64.90;;;;;;5037110;28;20091;-71
2023/05/17 10:01:21;;;;;;;6.18;1.75;;;15.00;64.20;;;;;;5043147;28;20561;-71
2023/05/17 10:03:47;;;;;;;6.75;2.15;;;15.00;63.60;;;;;;5027059;28;21141;-71
2023/05/17 10:06:17;;;;;;;8.27;2.15;;;15.00;63.40;;;;;;5025674;28;20136;-70
2023/05/17 10:08:45;;;;;;;6.45;1.90;;;15.10;63.70;;;;;;5043874;28;20037;-70
2023/05/17 10:11:10;;;;;;;6.70;2.03;;;15.10;62.70;;;;;;5031104;28;20191;-70
2023/05/17 10:13:46;;;;;;;5.65;2.13;;;15.10;62.70;;;;;;5037784;28;20124;-69
2023/05/17 10:16:12;;;;;;;11.50;3.28;;;15.20;63.00;;;;;;5050060;28;20029;-75
2023/05/17 10:18:39;;;;;;;7.75;2.85;;;15.20;62.40;;;;;;5044054;28;20119;-76
2023/05/17 10:21:06;;;;;;;10.02;2.63;;;15.30;63.00;;;;;;5036821;28;20041;-77
2023/05/17 10:23:33;;;;;;;7.30;1.98;;;15.30;62.60;;;;;;5028653;28;20041;-77
2023/05/17 10:26:00;;;;;;;5.95;1.70;;;15.40;62.10;;;;;;5032406;28;20056;-77
2023/05/17 10:28:26;;;;;;;6.85;1.98;;;15.40;62.70;;;;;;5041806;28;20104;-77
2023/05/17 10:30:53;;;;;;;7.53;3.70;;;15.50;62.50;;;;;;5037885;28;20041;-78
2023/05/17 10:33:20;;;;;;;7.20;1.80;;;15.60;62.40;;;;;;5048281;28;20043;-78
2023/05/17 10:35:48;;;;;;;9.68;2.05;;;15.60;62.10;;;;;;5042128;28;20033;-76
2023/05/17 10:38:14;;;;;;;9.75;2.75;;;15.70;61.40;;;;;;5050406;28;20064;-76
2023/05/17 10:40:41;;;;;;;6.57;2.28;;;15.70;61.60;;;;;;5048052;28;20389;-75
2023/05/17 10:43:09;;;;;;;5.72;2.08;;;15.80;62.00;;;;;;5047351;28;20037;-77
2023/05/17 10:45:35;;;;;;;9.82;2.85;;;15.90;61.10;;;;;;5044241;28;20407;-69
2023/05/17 10:48:04;;;;;;;9.00;1.88;;;15.90;61.10;;;;;;5047543;28;20304;-69
2023/05/17 10:50:31;;;;;;;6.22;1.70;;;15.90;60.90;;;;;;5049179;28;20040;-69
2023/05/17 10:52:58;;;;;;;6.43;2.15;;;16.00;60.80;;;;;;5044424;28;20041;-70
2023/05/17 10:55:38;;;;;;;14.40;1.90;;;16.00;60.00;;;;;;5049512;28;20056;-69
2023/05/17 10:58:09;;;;;;;7.25;1.70;;;16.00;59.50;;;;;;5038843;28;20042;-69
2023/05/17 11:00:43;;;;;;;7.35;2.10;;;15.90;59.60;;;;;;5043087;28;20033;-70
2023/05/17 11:03:16;;;;;;;7.28;2.20;;;15.90;59.10;;;;;;5039083;28;20036;-69
2023/05/17 11:06:04;;;;;;;5.07;1.88;;;15.80;58.70;;;;;;5039965;28;20100;-68
2023/05/17 11:08:30;;;;;;;5.60;1.73;;;15.70;58.90;;;;;;5049258;28;20144;-69
2023/05/17 11:11:18;;;;;;;8.75;1.98;;;15.80;59.60;;;;;;5046902;28;20044;-69
2023/05/17 11:13:54;;;;;;;9.38;2.30;;;15.80;60.20;;;;;;5027586;28;20056;-70
2023/05/17 11:16:22;;;;;;;5.10;1.75;;;15.90;59.40;;;;;;5045329;28;20033;-69
2023/05/17 11:18:53;;;;;;;13.82;2.42;;;15.90;59.20;;;;;;5042612;28;20039;-68
2023/05/17 11:21:21;;;;;;;4.57;1.80;;;15.90;59.40;;;;;;5043597;28;20041;-70
2023/05/17 11:23:52;;;;;;;8.50;2.20;;;15.90;59.60;;;;;;5042678;28;20461;-75
2023/05/17 11:26:22;;;;;;;5.68;2.10;;;16.00;59.90;;;;;;5046320;28;20144;-74
2023/05/17 11:28:57;;;;;;;7.65;2.08;;;16.00;59.40;;;;;;5048637;28;20563;-74
2023/05/17 11:31:41;;;;;;;11.45;2.15;;;16.00;59.40;;;;;;5048249;28;20044;-75
2023/05/17 11:34:07;;;;;;;5.53;2.03;;;16.10;59.70;;;;;;5042935;28;20037;-74
2023/05/17 11:36:48;;;;;;;6.57;2.05;;;16.20;59.80;;;;;;5049862;28;20029;-75
2023/05/17 11:39:17;;;;;;;7.75;2.30;;;16.30;59.80;;;;;;5048676;28;20029;-76
2023/05/17 11:41:51;;;;;;;5.75;1.85;;;16.30;59.70;;;;;;5050314;28;20220;-76
2023/05/17 11:44:24;;;;;;;5.18;1.85;;;16.40;59.10;;;;;;5044714;28;20049;-76
2023/05/17 11:46:50;;;;;;;9.43;1.92;;;16.40;59.00;;;;;;5054105;28;20455;-75
2023/05/17 11:49:15;;;;;;;13.10;2.40;;;16.50;60.60;;;;;;5050917;28;20174;-74
2023/05/17 11:51:42;;;;;;;4.93;2.15;;;16.50;59.50;;;;;;5049744;28;20048;-76
2023/05/17 11:54:10;;;;;;;9.68;2.03;;;16.60;59.10;;;;;;5051143;28;20128;-75
2023/05/17 11:56:37;;;;;;;7.15;3.13;;;16.60;57.70;;;;;;5037145;28;20077;-77
2023/05/17 11:59:03;;;;;;;6.72;2.22;;;16.50;57.40;;;;;;5044723;28;20547;-72
2023/05/17 12:01:44;;;;;;;10.63;2.25;;;16.50;57.40;;;;;;5049130;28;20039;-75
2023/05/17 12:04:10;;;;;;;8.80;2.35;;;16.50;57.50;;;;;;5053117;28;20500;-74
2023/05/17 12:06:37;;;;;;;6.05;2.08;;;16.50;57.80;;;;;;5047110;28;20041;-77
2023/05/17 12:09:04;;;;;;;7.25;2.35;;;16.50;57.90;;;;;;5049793;28;20040;-76
2023/05/17 12:11:30;;;;;;;5.97;2.30;;;16.50;57.40;;;;;;5047110;28;20051;-76
2023/05/17 12:13:56;;;;;;;7.55;2.75;;;16.50;57.80;;;;;;5049216;28;20362;-75
2023/05/17 12:16:23;;;;;;;9.10;2.30;;;16.60;57.90;;;;;;5046171;28;20033;-74
2023/05/17 12:18:50;;;;;;;5.47;1.90;;;16.70;57.90;;;;;;5048115;28;20045;-75
2023/05/17 12:21:17;;;;;;;4.35;1.73;;;16.80;57.60;;;;;;5049742;28;20041;-70
2023/05/17 12:23:45;;;;;;;4.97;1.80;;;16.90;57.50;;;;;;5051027;28;20041;-70
2023/05/17 12:26:16;;;;;;;11.00;2.35;;;16.90;57.10;;;;;;5046268;28;20057;-69
2023/05/17 12:28:55;;;;;;;4.35;2.35;;;16.90;57.00;;;;;;5052619;28;20045;-70
2023/05/17 12:31:42;;;;;;;6.90;1.67;;;16.90;57.00;;;;;;5046913;28;20041;-69
2023/05/17 12:34:11;;;;;;;4.70;1.98;;;17.00;56.70;;;;;;5044282;28;20488;-69
2023/05/17 12:36:37;;;;;;;9.63;2.60;;;17.00;56.70;;;;;;5053686;28;20533;-70
2023/05/17 12:39:07;;;;;;;4.38;2.13;;;17.00;56.30;;;;;;5030361;28;20030;-70
2023/05/17 12:41:33;;;;;;;7.05;2.05;;;17.10;56.60;;;;;;5047791;28;20094;-70
2023/05/17 12:44:00;;;;;;;6.70;1.73;;;17.10;56.00;;;;;;5047206;28;20040;-70
2023/05/17 12:46:27;;;;;;;6.97;1.98;;;17.10;55.40;;;;;;5046499;28;20504;-73